Cognac-Châteaubernard (BA 709) Air Base

LFBG · Charente, Aquitania-Limosino-Poitou-Charentes, Francia

Storia di METAR LFBG · Cognac-Châteaubernard (BA 709) Air Base

Di seguito sono riportati i METAR degli ultimi giorni. Seleziona un anno per sfogliare i METAR più vecchi, dall'anno 2007 in poi.

2 dicembre 2022

Tempo Codice Tempo metereologico Temp. Vista Base nuvolosa Vento METAR/SPECI
13:30
M
6 °C 10 km+ 2.800 ft 060° 060° 6 kt METAR LFBG 021230Z AUTO 06006KT 9999 OVC028 06/01 Q1018 NOSIG
13:00
M
6 °C 10 km+ 2.700 ft 070° 070° 8 kt METAR LFBG 021200Z AUTO 07008KT 9999 OVC027 06/01 Q1018 NOSIG
12:30
M
7 °C 10 km+ 2.600 ft 070° 070° 8 kt METAR LFBG 021130Z AUTO 07008KT 9999 OVC026 07/01 Q1019 NOSIG
12:00
V
7 °C 10 km+ 3.300 ft 050° 050° 10 kt METAR LFBG 021100Z AUTO 05010KT 9999 SCT024 OVC033 07/02 Q1019 NOSIG
11:30
M
7 °C 10 km+ 2.100 ft 050° 050° 7 kt METAR LFBG 021030Z AUTO 05007KT 020V080 9999 FEW016 BKN021 BKN028 07/03 Q1019 NOSIG
11:00
V
7 °C 10 km+ 3.700 ft 030° 030° 7 kt METAR LFBG 021000Z AUTO 03007KT 9999 OVC037 07/04 Q1020 NOSIG
10:30
V
6 °C 10 km+ 3.500 ft 020° 020° 7 kt METAR LFBG 020930Z AUTO 02007KT 9999 OVC035 06/04 Q1020 NOSIG
10:00
V
6 °C 10 km+ 3.800 ft 020° 020° 7 kt METAR LFBG 020900Z AUTO 02007KT 9999 OVC038 06/04 Q1020 NOSIG
09:30
V
6 °C 10 km+ 4.200 ft 030° 030° 7 kt METAR LFBG 020830Z AUTO 03007KT 9999 OVC042 06/04 Q1020 NOSIG
09:00
V
6 °C 10 km+ 4.300 ft 020° 020° 8 kt METAR LFBG 020800Z AUTO 02008KT 9999 OVC043 06/04 Q1020 NOSIG
08:30
V
6 °C 10 km+ 4.300 ft 020° 020° 9 kt METAR LFBG 020730Z AUTO 02009KT 9999 OVC043 06/04 Q1020 NOSIG
08:00
V
6 °C 10 km+ 4.700 ft 020° 020° 7 kt METAR LFBG 020700Z AUTO 02007KT 9999 OVC047 06/04 Q1020 NOSIG
07:30
V
6 °C 10 km+ 4.600 ft 020° 020° 8 kt METAR LFBG 020630Z AUTO 02008KT 9999 OVC046 06/04 Q1020 NOSIG
07:00
V
6 °C 10 km+ 4.900 ft 030° 030° 8 kt METAR LFBG 020600Z AUTO 03008KT 9999 OVC049 06/04 Q1020 NOSIG
06:30
V
6 °C 10 km+ 4.800 ft 030° 030° 7 kt METAR LFBG 020530Z AUTO 03007KT 9999 OVC048 06/04 Q1020
06:00
V
6 °C 10 km+ 4.800 ft 020° 020° 10 kt METAR LFBG 020500Z AUTO 02010KT 9999 OVC048 06/04 Q1020
05:30
V
6 °C 10 km+ 4.800 ft 030° 030° 11 kt METAR LFBG 020430Z AUTO 03011KT 9999 OVC048 06/04 Q1020
05:00
V
6 °C 10 km+ 4.400 ft 030° 030° 9 kt METAR LFBG 020400Z AUTO 03009KT 9999 OVC044 06/04 Q1020
04:30
V
7 °C 10 km+ 4.500 ft 020° 020° 10 kt METAR LFBG 020330Z AUTO 02010KT 9999 OVC045 07/04 Q1020
04:00
V
7 °C 10 km+ 4.400 ft 020° 020° 10 kt METAR LFBG 020300Z AUTO 02010KT 9999 OVC044 07/04 Q1021
03:30
V
7 °C 10 km+ 4.400 ft 020° 020° 8 kt METAR LFBG 020230Z AUTO 02008KT 9999 OVC044 07/04 Q1021
03:00
V
7 °C 10 km+ 4.400 ft 020° 020° 9 kt METAR LFBG 020200Z AUTO 02009KT 9999 OVC044 07/04 Q1021
02:30
V
7 °C 10 km+ 4.300 ft 010° 010° 8 kt METAR LFBG 020130Z AUTO 01008KT 9999 OVC043 07/04 Q1021
02:00
V
7 °C 10 km+ 4.300 ft 020° 020° 7 kt METAR LFBG 020100Z AUTO 02007KT 9999 OVC043 07/04 Q1021
01:30
V
7 °C 10 km+ 4.000 ft 020° 020° 8 kt METAR LFBG 020030Z AUTO 02008KT 9999 OVC040 07/04 Q1021
01:00
V
7 °C 10 km+ 4.000 ft 030° 030° 8 kt METAR LFBG 020000Z AUTO 03008KT 9999 OVC040 07/04 Q1022
00:30
V
7 °C 10 km+ 4.300 ft 030° 030° 11 kt METAR LFBG 012330Z AUTO 03011KT 9999 OVC043 07/05 Q1022
00:00
V
7 °C 10 km+ 4.600 ft 020° 020° 8 kt METAR LFBG 012300Z AUTO 02008KT 9999 OVC046 07/05 Q1022

1 dicembre 2022

Tempo Codice Tempo metereologico Temp. Vista Base nuvolosa Vento METAR/SPECI
23:30
V
7 °C 10 km+ 3.700 ft 010° 010° 7 kt METAR LFBG 012230Z AUTO 01007KT 9999 BKN037 BKN046 07/05 Q1022
23:00
V
7 °C 9 km 3.800 ft 010° 010° 7 kt METAR LFBG 012200Z AUTO 01007KT 9000 OVC038 07/05 Q1022
22:30
V
7 °C 9 km 4.000 ft 010° 010° 7 kt METAR LFBG 012130Z AUTO 01007KT 9000 OVC040 07/05 Q1022
22:00
V
7 °C 10 km+ 3.700 ft 010° 010° 8 kt METAR LFBG 012100Z AUTO 01008KT 9999 FEW029 OVC037 07/05 Q1022
21:30
V
7 °C 10 km+ 3.100 ft 010° 010° 8 kt METAR LFBG 012030Z AUTO 01008KT 9999 OVC031 07/05 Q1022
21:00
V
7 °C 10 km+ 3.300 ft 010° 010° 8 kt METAR LFBG 012000Z AUTO 01008KT 9999 OVC033 07/04 Q1022 NOSIG
20:30
V
7 °C 10 km+ 3.400 ft 020° 020° 8 kt METAR LFBG 011930Z AUTO 02008KT 9999 OVC034 07/04 Q1022 NOSIG
20:00
V
7 °C 10 km+ 3.400 ft 030° 030° 9 kt METAR LFBG 011900Z AUTO 03009KT 9999 OVC034 07/04 Q1022 NOSIG
19:30
V
7 °C 10 km+ 3.200 ft 020° 020° 9 kt METAR LFBG 011830Z AUTO 02009KT 9999 OVC032 07/04 Q1022 NOSIG
19:00
V
7 °C 10 km+ 3.500 ft 020° 020° 10 kt METAR LFBG 011800Z AUTO 02010KT 9999 OVC035 07/04 Q1022 NOSIG
18:30
V
7 °C 10 km+ 3.700 ft 020° 020° 11 kt METAR LFBG 011730Z AUTO 02011KT 9999 OVC037 07/04 Q1022 NOSIG
18:00
V
8 °C 10 km+ 4.000 ft 020° 020° 11 kt METAR LFBG 011700Z AUTO 02011KT 9999 OVC040 08/04 Q1022 NOSIG
17:30
V
8 °C 10 km+ 4.100 ft 010° 010° 10 kt METAR LFBG 011630Z AUTO 01010KT 9999 OVC041 08/04 Q1022 NOSIG
17:00
V
8 °C 10 km+ 3.800 ft 020° 020° 9 kt METAR LFBG 011600Z AUTO 02009KT 9999 OVC038 08/04 Q1022 NOSIG
16:30
V
8 °C 10 km+ 4.000 ft 020° 020° 10 kt METAR LFBG 011530Z AUTO 02010KT 9999 OVC040 08/04 Q1022 NOSIG
16:00
V
8 °C 10 km+ 4.000 ft 020° 020° 13 kt METAR LFBG 011500Z AUTO 02013KT 9999 OVC040 08/04 Q1022 NOSIG
15:30
V
9 °C 10 km+ 3.900 ft 030° 030° 12 kt METAR LFBG 011430Z AUTO 03012KT 9999 BKN039 09/04 Q1022 NOSIG
15:00
V
9 °C 10 km+ - 020° 020° 13 kt METAR LFBG 011400Z AUTO 02013KT 9999 FEW022 SCT038 09/04 Q1022 NOSIG
14:30
V
9 °C 10 km+ - 020° 020° 14 kt METAR LFBG 011330Z AUTO 02014KT CAVOK 09/04 Q1022 NOSIG
14:00
V
9 °C 10 km+ 4.000 ft 020° 020° 12 kt METAR LFBG 011300Z AUTO 02012KT 9999 BKN040 09/04 Q1022 NOSIG
13:30
V
9 °C 10 km+ - 030° 030° 13 kt METAR LFBG 011230Z AUTO 03013KT 9999 FEW019 09/04 Q1022 NOSIG
13:00
V
9 °C 10 km+ - 020° 020° 13 kt METAR LFBG 011200Z AUTO 02013KT 9999 FEW016 09/04 Q1023 NOSIG
12:30
V
8 °C 10 km+ - 010° 010° 13 kt METAR LFBG 011130Z AUTO 01013KT 9999 SCT016 08/04 Q1023 NOSIG
12:00
V
8 °C 10 km+ - 010° 010° 11 kt METAR LFBG 011100Z AUTO 01011KT 9999 SCT015 08/04 Q1023 NOSIG
11:30
M
8 °C 10 km+ 1.600 ft 010° 010° 11 kt METAR LFBG 011030Z AUTO 01011KT 9999 BKN016 08/04 Q1023 NOSIG
11:00
M
8 °C 10 km+ 1.400 ft 010° 010° 10 kt METAR LFBG 011000Z AUTO 01010KT 9999 BKN014 08/04 Q1023 BECMG SCT015 BKN025
10:30
M
8 °C 10 km+ 1.800 ft 010° 010° 8 kt METAR LFBG 010930Z AUTO 01008KT 9999 BKN018 08/05 Q1023 TEMPO BKN008
10:00
M
7 °C 10 km+ 1.800 ft 020° 020° 7 kt METAR LFBG 010900Z AUTO 02007KT 9999 OVC018 07/05 Q1023 TEMPO BKN008
09:30
V
7 °C 10 km+ 4.300 ft 030° 030° 6 kt METAR LFBG 010830Z AUTO 03006KT 9999 SCT019 OVC043 07/05 Q1023 TEMPO BKN007
09:00
V
7 °C 10 km+ 4.300 ft 030° 030° 7 kt METAR LFBG 010800Z AUTO 03007KT 9999 OVC043 07/05 Q1023 NOSIG
08:30
V
6 °C 10 km+ 4.400 ft 020° 020° 6 kt METAR LFBG 010730Z AUTO 02006KT 9999 BKN044 06/05 Q1022 NOSIG
08:00
V
6 °C 9 km - 010° 010° 8 kt METAR LFBG 010700Z AUTO 01008KT 9000 FEW042 06/05 Q1022 NOSIG
07:30
V
7 °C 9 km 4.100 ft 020° 020° 8 kt METAR LFBG 010630Z AUTO 02008KT 9000 OVC041 07/05 Q1022 NOSIG
07:00
V
7 °C 9 km 4.100 ft 030° 030° 7 kt METAR LFBG 010600Z AUTO 03007KT 9000 FEW012 OVC041 07/05 Q1022
06:30
M
6 °C 10 km+ 1.200 ft 040° 040° 8 kt METAR LFBG 010530Z AUTO 04008KT 9999 BKN012 OVC041 06/05 Q1022
06:00
M
6 °C 10 km+ 1.200 ft 030° 030° 8 kt METAR LFBG 010500Z AUTO 03008KT 9999 BKN012 BKN042 06/05 Q1022
05:30
M
6 °C 10 km+ 1.200 ft 030° 030° 6 kt METAR LFBG 010430Z AUTO 03006KT 9999 OVC012 06/04 Q1022
05:00
V
5 °C 10 km+ - 030° 030° 10 kt METAR LFBG 010400Z AUTO 03010KT CAVOK 05/04 Q1022
04:30
V
5 °C 10 km+ - 020° 020° 7 kt METAR LFBG 010330Z AUTO 02007KT CAVOK 05/03 Q1022
04:00
V
5 °C 10 km+ - 030° 030° 10 kt METAR LFBG 010300Z AUTO 03010KT 9999 FEW015 05/03 Q1022
03:30
V
5 °C 10 km+ - 030° 030° 10 kt METAR LFBG 010230Z AUTO 03010KT CAVOK 05/03 Q1022
03:00
V
5 °C 10 km+ - 020° 020° 10 kt METAR LFBG 010200Z AUTO 02010KT CAVOK 05/03 Q1022
02:30
V
6 °C 10 km+ - 020° 020° 9 kt METAR LFBG 010130Z AUTO 02009KT CAVOK 06/03 Q1022
02:00
V
6 °C 10 km+ - 030° 030° 11 kt METAR LFBG 010100Z AUTO 03011KT 9999 FEW025 06/03 Q1022
01:30
M
6 °C 10 km+ 2.500 ft 020° 020° 8 kt METAR LFBG 010030Z AUTO 02008KT 9999 OVC025 06/03 Q1022
01:00
M
6 °C 10 km+ 2.300 ft 030° 030° 8 kt METAR LFBG 010000Z AUTO 03008KT 9999 OVC023 06/03 Q1022
00:30
M
6 °C 10 km+ 2.200 ft 040° 040° 8 kt METAR LFBG 302330Z AUTO 04008KT 9999 BKN022 06/03 Q1022
00:00
V
6 °C 10 km+ - 040° 040° 8 kt METAR LFBG 302300Z AUTO 04008KT CAVOK 06/03 Q1022

30 novembre 2022

Tempo Codice Tempo metereologico Temp. Vista Base nuvolosa Vento METAR/SPECI
23:30
V
6 °C 10 km+ - 030° 030° 11 kt METAR LFBG 302230Z AUTO 03011KT CAVOK 06/03 Q1022
23:00
V
6 °C 10 km+ - 030° 030° 11 kt METAR LFBG 302200Z AUTO 03011KT CAVOK 06/03 Q1022
22:30
V
6 °C 10 km+ - 040° 040° 9 kt METAR LFBG 302130Z AUTO 04009KT CAVOK 06/03 Q1021
22:00
V
7 °C 10 km+ - 030° 030° 12 kt METAR LFBG 302100Z AUTO 03012KT CAVOK 07/03 Q1021
21:30
V
7 °C 10 km+ - 020° 020° 9 kt METAR LFBG 302030Z AUTO 02009KT CAVOK 07/04 Q1021
21:00
V
7 °C 10 km+ - 030° 030° 9 kt METAR LFBG 302000Z AUTO 03009KT 9999 FEW034 07/05 Q1021
20:30
V
7 °C 10 km+ 3.400 ft 030° 030° 11 kt METAR LFBG 301930Z AUTO 03011KT 9999 BKN034 07/05 Q1021
20:00
V
7 °C 10 km+ 3.700 ft 030° 030° 10 kt METAR LFBG 301900Z AUTO 03010KT 9999 BKN037 07/05 Q1020
19:30
V
7 °C 10 km+ - 030° 030° 10 kt METAR LFBG 301830Z AUTO 03010KT 9999 FEW036 07/05 Q1020
19:00
V
8 °C 10 km+ - 030° 030° 11 kt METAR LFBG 301800Z AUTO 03011KT CAVOK 08/05 Q1020
18:30
V
8 °C 10 km+ - 030° 030° 10 kt METAR LFBG 301730Z AUTO 03010KT CAVOK 08/05 Q1020
18:00
V
8 °C 10 km+ - 020° 020° 7 kt METAR LFBG 301700Z AUTO 02007KT 9999 FEW036 08/05 Q1019 NOSIG
17:30
V
8 °C 10 km+ - 020° 020° 8 kt METAR LFBG 301630Z AUTO 02008KT CAVOK 08/05 Q1019 NOSIG
17:00
V
9 °C 10 km+ - 030° 030° 8 kt METAR LFBG 301600Z AUTO 03008KT CAVOK 09/05 Q1019 NOSIG
16:30
V
9 °C 10 km+ - 040° 040° 9 kt METAR LFBG 301530Z AUTO 04009KT CAVOK 09/05 Q1019 NOSIG
16:00
V
9 °C 10 km+ - 050° 050° 8 kt METAR LFBG 301500Z AUTO 05008KT 9999 FEW022 09/05 Q1019 NOSIG
15:30
V
9 °C 10 km+ - 050° 050° 9 kt METAR LFBG 301430Z AUTO 05009KT CAVOK 09/05 Q1019 TEMPO BKN008
15:00
M
9 °C 10 km+ 1.600 ft 060° 060° 11 kt METAR LFBG 301400Z AUTO 06011KT 9999 BKN016 09/05 Q1019 TEMPO BKN008
14:30
M
8 °C 10 km+ 1.500 ft 050° 050° 10 kt METAR LFBG 301330Z AUTO 05010KT 9999 BKN015 08/05 Q1020 TEMPO BKN008
14:00
V
9 °C 10 km+ - 040° 040° 11 kt METAR LFBG 301300Z AUTO 04011KT 010V070 9999 FEW016 09/05 Q1020 TEMPO BKN008
13:30
V
9 °C 10 km+ - 050° 050° 10 kt METAR LFBG 301230Z AUTO 05010KT 9999 SCT015 09/06 Q1020 TEMPO BKN008
13:00
V
9 °C 10 km+ - 040° 040° 10 kt METAR LFBG 301200Z AUTO 04010KT 9999 FEW014 09/05 Q1020 TEMPO BKN008
12:30
V
8 °C 10 km+ - 040° 040° 10 kt METAR LFBG 301130Z AUTO 04010KT 9999 SCT012 08/05 Q1020 TEMPO BKN008
12:00
V
8 °C 10 km+ - 050° 050° 10 kt METAR LFBG 301100Z AUTO 05010KT 9999 FEW014 08/05 Q1020 TEMPO BKN008
11:30
V
8 °C 10 km+ - 060° 060° 7 kt METAR LFBG 301030Z AUTO 06007KT 9999 FEW007 08/06 Q1021 TEMPO BKN008
11:00
I
7 °C 10 km+ 600 ft 030° 030° 7 kt METAR LFBG 301000Z AUTO 03007KT 9999 BKN006 07/06 Q1021 BECMG BKN012

Noi e le terze parti seguiamo il tuo comportamento su internet con i cookie. Se continui, riteniamo che tu sia d'accordo con la nostra Politica sui cookie.